createdAt,value
2018-03-30T00:00:21.349Z,7.82
2018-03-30T00:01:01.653Z,7.77
2018-03-30T00:01:42.080Z,7.79
2018-03-30T00:02:22.454Z,7.81
2018-03-30T00:03:02.841Z,7.73
2018-03-30T00:03:43.340Z,7.76
2018-03-30T00:04:25.183Z,7.74
2018-03-30T00:05:05.567Z,7.71
2018-03-30T00:05:46.007Z,7.74
2018-03-30T00:06:26.351Z,7.76
2018-03-30T00:07:06.763Z,7.76
2018-03-30T00:07:47.146Z,7.69
2018-03-30T00:08:28.872Z,7.66
2018-03-30T00:09:09.286Z,7.74
2018-03-30T00:09:49.643Z,7.76
2018-03-30T00:10:30.055Z,7.76
2018-03-30T00:11:10.659Z,7.76
2018-03-30T00:11:52.387Z,7.85
2018-03-30T00:12:32.806Z,7.79
2018-03-30T00:13:13.147Z,7.77
2018-03-30T00:17:00.718Z,7.94
2018-03-30T00:17:41.090Z,7.94
2018-03-30T00:18:21.492Z,7.94
2018-03-30T00:19:01.934Z,7.92
2018-03-30T00:19:42.327Z,8.02
2018-03-30T00:20:22.695Z,8.07
2018-03-30T00:21:03.066Z,8.14
2018-03-30T00:21:43.437Z,8.27
2018-03-30T00:22:23.834Z,8.37
2018-03-30T00:23:04.257Z,8.54
2018-03-30T00:23:44.632Z,8.64
2018-03-30T00:24:25.016Z,8.71
2018-03-30T00:25:05.797Z,8.88
2018-03-30T00:25:46.003Z,8.96
2018-03-30T00:26:26.379Z,8.94
2018-03-30T00:27:06.728Z,8.94
2018-03-30T00:27:47.178Z,9
2018-03-30T00:28:27.597Z,8.94
2018-03-30T00:29:07.990Z,8.85
2018-03-30T00:29:48.346Z,8.82
2018-03-30T00:30:28.956Z,8.71
2018-03-30T00:31:09.261Z,8.7
2018-03-30T00:31:49.693Z,8.47
2018-03-30T00:32:31.636Z,8.42
2018-03-30T00:33:12.034Z,8.34
2018-03-30T00:33:53.043Z,8.13
2018-03-30T00:34:33.428Z,7.99
2018-03-30T00:35:14.725Z,7.96
2018-03-30T00:35:55.142Z,7.84
2018-03-30T00:36:35.826Z,7.81
2018-03-30T00:37:16.148Z,7.69
2018-03-30T00:37:56.467Z,7.74
2018-03-30T00:38:37.572Z,7.71
2018-03-30T00:39:19.645Z,7.69
2018-03-30T00:40:00.427Z,7.67
2018-03-30T00:40:40.758Z,7.71
2018-03-30T00:41:21.163Z,7.85
2018-03-30T00:42:04.618Z,7.82
2018-03-30T00:42:45.398Z,7.86
2018-03-30T00:43:25.811Z,7.85
2018-03-30T00:45:28.747Z,7.99
2018-03-30T00:46:12.574Z,7.92
2018-03-30T00:46:53.614Z,8.02
2018-03-30T00:47:34.110Z,7.96
2018-03-30T00:48:14.907Z,7.79
2018-03-30T00:48:55.347Z,7.84
2018-03-30T00:49:37.646Z,7.82
2018-03-30T00:50:18.023Z,7.84
2018-03-30T00:50:58.540Z,7.84
2018-03-30T00:51:40.223Z,7.81
2018-03-30T00:52:19.984Z,7.95
2018-03-30T00:53:00.659Z,7.91
2018-03-30T00:53:41.070Z,7.91
2018-03-30T00:54:22.864Z,7.95
2018-03-30T00:55:03.441Z,7.84
2018-03-30T00:55:45.088Z,7.96
2018-03-30T00:56:25.686Z,7.85
2018-03-30T00:57:06.161Z,7.82
2018-03-30T00:59:21.153Z,7.86
2018-03-30T01:00:06.195Z,7.81
2018-03-30T01:00:46.928Z,7.82
2018-03-30T01:01:27.339Z,7.79
2018-03-30T01:02:07.682Z,7.86
2018-03-30T01:02:48.101Z,7.82
2018-03-30T01:03:28.620Z,7.85
2018-03-30T01:04:08.942Z,7.85
2018-03-30T01:04:49.357Z,7.92
2018-03-30T01:05:29.697Z,7.82
2018-03-30T01:06:10.519Z,7.94
2018-03-30T01:06:50.936Z,7.84
2018-03-30T01:07:31.317Z,7.92
2018-03-30T01:08:11.709Z,7.95
2018-03-30T01:08:52.120Z,8
2018-03-30T01:09:32.505Z,8.03
2018-03-30T01:10:15.550Z,8.02
2018-03-30T01:10:55.969Z,8.13
2018-03-30T01:11:36.342Z,8.18
2018-03-30T01:12:16.693Z,8.31
2018-03-30T01:12:57.164Z,8.36
2018-03-30T01:13:37.446Z,8.34
2018-03-30T01:14:18.091Z,8.49
2018-03-30T01:14:58.504Z,8.61
2018-03-30T01:15:38.888Z,8.55
2018-03-30T01:16:19.610Z,8.71
2018-03-30T01:16:59.833Z,8.71
2018-03-30T01:17:40.202Z,8.75
2018-03-30T01:18:20.638Z,8.8
2018-03-30T01:19:01.084Z,8.8
2018-03-30T01:19:41.480Z,8.86
2018-03-30T01:20:21.847Z,8.88
2018-03-30T01:21:02.282Z,8.91
2018-03-30T01:21:42.662Z,8.94
2018-03-30T01:22:23.037Z,8.88
2018-03-30T01:23:03.411Z,9
2018-03-30T01:23:43.811Z,8.94
2018-03-30T01:24:24.220Z,8.93
2018-03-30T01:25:04.881Z,8.93
2018-03-30T01:25:45.261Z,8.94
2018-03-30T01:26:26.207Z,8.88
2018-03-30T01:27:06.600Z,8.76
2018-03-30T01:27:46.962Z,8.68
2018-03-30T01:28:27.351Z,8.67
2018-03-30T01:29:07.814Z,8.57
2018-03-30T01:29:48.137Z,8.52
2018-03-30T01:30:28.544Z,8.58
2018-03-30T01:31:09.001Z,8.55
2018-03-30T01:31:49.406Z,8.52
2018-03-30T01:32:29.812Z,8.47
2018-03-30T01:33:10.195Z,8.47
2018-03-30T01:33:50.577Z,8.52
2018-03-30T01:34:30.969Z,8.36
2018-03-30T01:35:11.419Z,8.45
2018-03-30T01:35:51.808Z,8.37
2018-03-30T01:36:32.332Z,8.37
2018-03-30T01:37:12.739Z,8.28
2018-03-30T01:37:53.156Z,8.27
2018-03-30T01:38:33.554Z,8.24
2018-03-30T01:39:13.945Z,8.34
2018-03-30T01:39:54.391Z,8.22
2018-03-30T01:40:34.804Z,8.21
2018-03-30T01:41:15.184Z,8.21
2018-03-30T01:41:55.598Z,8.18
2018-03-30T01:42:35.944Z,8.1
2018-03-30T01:43:16.378Z,8.06
2018-03-30T01:43:56.752Z,8.02
2018-03-30T01:44:37.123Z,7.95
2018-03-30T01:45:17.571Z,8.06
2018-03-30T01:45:57.936Z,7.91
2018-03-30T01:46:38.363Z,7.89
2018-03-30T01:47:18.733Z,7.94
2018-03-30T01:47:59.093Z,7.96
2018-03-30T01:48:39.494Z,7.94
2018-03-30T01:49:19.867Z,7.96
2018-03-30T01:50:00.299Z,8.03
2018-03-30T01:50:40.681Z,8.13
2018-03-30T01:51:21.048Z,8.07
2018-03-30T01:52:01.450Z,8.04
2018-03-30T01:52:41.838Z,8.07
2018-03-30T01:53:22.268Z,8.1
2018-03-30T01:54:02.617Z,8.17
2018-03-30T01:54:43.054Z,8.17
2018-03-30T01:55:23.435Z,8.24
2018-03-30T01:56:03.838Z,8.21
2018-03-30T01:56:44.254Z,8.21
2018-03-30T01:57:24.633Z,8.34
2018-03-30T01:58:05.036Z,8.31
2018-03-30T01:58:45.438Z,8.31
2018-03-30T01:59:25.838Z,8.36
2018-03-30T02:00:06.185Z,8.36
2018-03-30T02:00:46.600Z,8.36
2018-03-30T02:01:27.011Z,8.39
2018-03-30T02:02:07.424Z,8.36
2018-03-30T02:02:47.797Z,8.36
2018-03-30T02:03:28.177Z,8.42
2018-03-30T02:04:08.546Z,8.45
2018-03-30T02:04:48.973Z,8.46
2018-03-30T02:05:29.338Z,8.54
2018-03-30T02:06:09.727Z,8.57
2018-03-30T02:06:50.168Z,8.5
2018-03-30T02:07:30.538Z,8.54
2018-03-30T02:08:10.913Z,8.67
2018-03-30T02:08:51.312Z,8.65
2018-03-30T02:09:31.683Z,8.65
2018-03-30T02:10:12.073Z,8.64
2018-03-30T02:10:52.479Z,8.7
2018-03-30T02:11:32.860Z,8.64
2018-03-30T02:12:13.258Z,8.58
2018-03-30T02:12:53.684Z,8.58
2018-03-30T02:13:34.110Z,8.63
2018-03-30T02:14:14.531Z,8.54
2018-03-30T02:14:54.919Z,8.61
2018-03-30T02:15:35.315Z,8.6
2018-03-30T02:16:15.631Z,8.6
2018-03-30T02:16:56.038Z,8.67
2018-03-30T02:17:36.439Z,8.58
2018-03-30T02:18:16.847Z,8.5
2018-03-30T02:18:57.243Z,8.49
2018-03-30T02:19:37.651Z,8.52
2018-03-30T02:20:18.009Z,8.52
2018-03-30T02:20:58.418Z,8.47
2018-03-30T02:21:38.777Z,8.5
2018-03-30T02:22:19.142Z,8.37
2018-03-30T02:22:59.583Z,8.31
2018-03-30T02:23:39.972Z,8.37
2018-03-30T02:24:20.360Z,8.31
2018-03-30T02:25:00.762Z,8.36
2018-03-30T02:25:41.121Z,8.14
2018-03-30T02:26:21.549Z,8.2
2018-03-30T02:27:01.905Z,8.2
2018-03-30T02:27:42.341Z,8.13
2018-03-30T02:28:22.704Z,8.13
2018-03-30T02:29:03.119Z,8.1
2018-03-30T02:29:43.525Z,8.07
2018-03-30T02:30:23.883Z,7.99
2018-03-30T02:31:04.279Z,8
2018-03-30T02:31:44.628Z,8.07
2018-03-30T02:32:25.096Z,8.07
2018-03-30T02:33:05.932Z,8.02
2018-03-30T02:33:46.298Z,8.04
2018-03-30T02:34:26.732Z,8
2018-03-30T02:35:07.133Z,8.12
2018-03-30T02:35:47.544Z,8.07
2018-03-30T02:36:27.871Z,8.03
2018-03-30T02:37:08.227Z,8.02
2018-03-30T02:37:48.704Z,7.99
2018-03-30T02:38:29.065Z,7.94
2018-03-30T02:39:09.468Z,8.03
2018-03-30T02:39:49.818Z,8.06
2018-03-30T02:40:30.261Z,8.13
2018-03-30T02:41:10.612Z,8.22
2018-03-30T02:41:50.997Z,8.22
2018-03-30T02:42:31.436Z,8.32
2018-03-30T02:43:11.828Z,8.32
2018-03-30T02:43:52.207Z,8.43
2018-03-30T02:44:32.585Z,8.37
2018-03-30T02:45:13.014Z,8.42
2018-03-30T02:45:53.395Z,8.42
2018-03-30T02:46:33.787Z,8.37
2018-03-30T02:47:14.176Z,8.45
2018-03-30T02:47:54.595Z,8.4
2018-03-30T02:48:34.972Z,8.5
2018-03-30T02:49:15.419Z,8.57
2018-03-30T02:49:55.800Z,8.46
2018-03-30T02:50:36.175Z,8.6
2018-03-30T02:51:16.551Z,8.7
2018-03-30T02:51:56.980Z,8.67
2018-03-30T02:52:37.405Z,8.71
2018-03-30T02:53:17.856Z,8.67
2018-03-30T02:53:58.209Z,8.64
2018-03-30T02:54:38.582Z,8.6
2018-03-30T02:55:19.005Z,8.57
2018-03-30T02:55:59.433Z,8.65
2018-03-30T02:56:39.836Z,8.75
2018-03-30T02:57:20.434Z,8.64
2018-03-30T02:58:00.899Z,8.64
2018-03-30T02:58:41.282Z,8.57
2018-03-30T02:59:21.662Z,8.54
2018-03-30T03:00:02.060Z,8.54
2018-03-30T03:00:42.505Z,8.58
2018-03-30T03:01:23.091Z,8.55
2018-03-30T03:02:03.768Z,8.6
2018-03-30T03:02:44.167Z,8.49
2018-03-30T03:03:24.810Z,8.42
2018-03-30T03:04:05.146Z,8.31
2018-03-30T03:04:45.532Z,8.32
2018-03-30T03:05:25.893Z,8.28
2018-03-30T03:06:06.275Z,8.21
2018-03-30T03:06:46.669Z,8.24
2018-03-30T03:07:27.150Z,8.2
2018-03-30T03:08:07.581Z,8.24
2018-03-30T03:08:48.337Z,8.18
2018-03-30T03:09:28.610Z,8.14
2018-03-30T03:10:08.838Z,8.09
2018-03-30T03:10:49.269Z,8.14
2018-03-30T03:11:29.653Z,8.2
2018-03-30T03:12:10.021Z,8.04
2018-03-30T03:12:53.559Z,8.06
2018-03-30T03:13:33.749Z,8.13
2018-03-30T03:14:14.198Z,8.1
2018-03-30T03:14:54.513Z,8.09
2018-03-30T03:15:34.945Z,8.04
2018-03-30T03:16:15.316Z,8.02
2018-03-30T03:16:55.715Z,8.1
2018-03-30T03:17:36.076Z,8.14
2018-03-30T03:18:16.442Z,8.13
2018-03-30T03:18:56.843Z,8.18
2018-03-30T03:19:37.246Z,8.14
2018-03-30T03:20:17.598Z,8.13
2018-03-30T03:20:57.987Z,8.14
2018-03-30T03:21:38.363Z,8.18
2018-03-30T03:22:18.788Z,8.2
2018-03-30T03:22:59.171Z,8.18
2018-03-30T03:23:39.538Z,8.07
2018-03-30T03:24:20.216Z,8.18
2018-03-30T03:25:00.357Z,8.2
2018-03-30T03:25:40.684Z,8.27
2018-03-30T03:27:55.000Z,8.31
2018-03-30T03:28:37.488Z,8.34
2018-03-30T03:29:17.762Z,8.37
2018-03-30T03:29:58.164Z,8.54
2018-03-30T03:30:38.574Z,8.55
2018-03-30T03:31:18.951Z,8.52
2018-03-30T03:31:59.300Z,8.63
2018-03-30T03:32:39.690Z,8.58
2018-03-30T03:33:20.098Z,8.63
2018-03-30T03:34:00.509Z,8.52
2018-03-30T03:34:40.908Z,8.6
2018-03-30T03:35:21.228Z,8.55
2018-03-30T03:36:01.623Z,8.68
2018-03-30T03:36:42.020Z,8.73
2018-03-30T03:37:22.430Z,8.7
2018-03-30T03:38:02.815Z,8.73
2018-03-30T03:38:43.183Z,8.7
2018-03-30T03:39:23.562Z,8.71
2018-03-30T03:40:04.028Z,8.75
2018-03-30T03:40:44.355Z,8.78
2018-03-30T03:41:24.750Z,8.8
2018-03-30T03:42:05.122Z,8.79
2018-03-30T03:42:45.467Z,8.71
2018-03-30T03:43:25.913Z,8.73
2018-03-30T03:44:06.298Z,8.79
2018-03-30T03:44:46.702Z,8.75
2018-03-30T03:45:27.086Z,8.73
2018-03-30T03:46:07.519Z,8.86
2018-03-30T03:46:47.904Z,8.91
2018-03-30T03:47:28.272Z,9.13
2018-03-30T03:48:08.734Z,9.2
2018-03-30T03:48:49.131Z,9.35
2018-03-30T03:49:29.515Z,9.37
2018-03-30T03:50:09.913Z,9.37
2018-03-30T03:50:50.255Z,9.41
2018-03-30T03:51:30.682Z,9.48
2018-03-30T03:52:11.069Z,9.52
2018-03-30T03:52:51.493Z,9.56
2018-03-30T03:53:31.828Z,9.67
2018-03-30T03:54:12.239Z,9.67
2018-03-30T03:54:52.677Z,9.73
2018-03-30T03:55:33.036Z,9.71
2018-03-30T03:56:13.394Z,9.71
2018-03-30T03:56:53.767Z,9.67
2018-03-30T03:57:34.193Z,9.6
2018-03-30T03:58:14.567Z,9.68
2018-03-30T03:58:54.973Z,9.73
2018-03-30T03:59:35.375Z,9.67
2018-03-30T04:00:15.738Z,9.65
2018-03-30T04:00:56.178Z,9.59
2018-03-30T04:01:36.557Z,9.65
2018-03-30T04:02:16.970Z,9.63
2018-03-30T04:02:57.343Z,9.68
2018-03-30T04:03:37.730Z,9.62
2018-03-30T04:04:18.134Z,9.75
2018-03-30T04:45:05.394Z,7.91
2018-03-30T04:45:46.076Z,7.94
2018-03-30T04:46:26.428Z,7.92
2018-03-30T04:47:06.823Z,7.92
2018-03-30T04:47:47.236Z,7.82
2018-03-30T04:48:27.665Z,7.85
2018-03-30T04:49:07.967Z,7.84
2018-03-30T04:49:48.411Z,7.76
2018-03-30T04:50:28.756Z,7.71
2018-03-30T04:51:09.133Z,7.77
2018-03-30T04:51:49.506Z,7.86
2018-03-30T04:52:29.931Z,7.88
2018-03-30T04:53:10.308Z,7.91
2018-03-30T04:53:50.713Z,7.92
2018-03-30T04:54:31.090Z,8.13
2018-03-30T04:55:11.551Z,8.18
2018-03-30T04:55:51.993Z,8.25
2018-03-30T04:56:32.374Z,8.25
2018-03-30T04:57:12.748Z,8.25
2018-03-30T04:57:53.188Z,8.17
2018-03-30T04:58:33.567Z,8.34
2018-03-30T04:59:13.964Z,8.25
2018-03-30T04:59:54.385Z,8.31
2018-03-30T05:00:34.771Z,8.4
2018-03-30T05:01:15.174Z,8.54
2018-03-30T05:01:55.599Z,8.55
2018-03-30T05:02:35.955Z,8.64
2018-03-30T05:03:16.352Z,8.64
2018-03-30T05:03:56.715Z,8.65
2018-03-30T05:04:37.153Z,8.75
2018-03-30T05:05:17.522Z,8.79
2018-03-30T05:05:57.915Z,8.86
2018-03-30T05:06:38.301Z,8.91
2018-03-30T05:07:18.727Z,8.94
2018-03-30T05:07:59.112Z,8.96
2018-03-30T05:08:39.516Z,9.01
2018-03-30T05:09:19.904Z,9.12
2018-03-30T05:10:00.267Z,9.08
2018-03-30T05:10:40.664Z,9.04
2018-03-30T05:11:21.099Z,9.12
2018-03-30T05:12:01.473Z,8.94
2018-03-30T05:12:41.842Z,8.94
2018-03-30T05:13:22.237Z,8.94
2018-03-30T05:14:02.664Z,8.96
2018-03-30T05:14:43.061Z,8.94
2018-03-30T05:15:23.450Z,8.88
2018-03-30T05:16:03.843Z,9
2018-03-30T05:16:44.228Z,8.86
2018-03-30T05:17:24.601Z,8.82
2018-03-30T05:18:05.034Z,8.76
2018-03-30T05:18:45.438Z,8.8
2018-03-30T05:19:25.837Z,8.88
2018-03-30T05:20:06.241Z,8.86
2018-03-30T05:20:46.635Z,8.88
2018-03-30T05:21:27.083Z,8.85
2018-03-30T05:22:07.486Z,8.88
2018-03-30T05:22:47.772Z,8.88
2018-03-30T05:23:28.208Z,8.86
2018-03-30T05:24:08.562Z,8.83
2018-03-30T05:24:48.930Z,8.76
2018-03-30T05:25:29.320Z,8.67
2018-03-30T05:26:09.782Z,8.57
2018-03-30T05:26:50.150Z,8.47
2018-03-30T05:27:30.541Z,8.49
2018-03-30T05:28:10.934Z,8.42
2018-03-30T05:28:51.418Z,8.34
2018-03-30T05:29:31.759Z,8.34
2018-03-30T05:30:12.161Z,8.39
2018-03-30T05:30:52.490Z,8.42
2018-03-30T05:31:32.888Z,8.43
2018-03-30T05:32:13.341Z,8.4
2018-03-30T05:32:53.727Z,8.45
2018-03-30T05:33:34.121Z,8.45
2018-03-30T05:34:14.553Z,8.49
2018-03-30T05:34:54.920Z,8.49
2018-03-30T05:35:35.334Z,8.52
2018-03-30T05:36:15.728Z,8.55
2018-03-30T05:36:56.109Z,8.68
2018-03-30T05:37:36.520Z,8.78
2018-03-30T05:38:16.935Z,8.83
2018-03-30T05:38:57.341Z,8.94
2018-03-30T05:39:37.703Z,9.06
2018-03-30T05:40:18.125Z,9.06
2018-03-30T05:40:58.451Z,9.23
2018-03-30T05:41:38.885Z,9.3
2018-03-30T05:42:19.301Z,9.41
2018-03-30T05:42:59.685Z,9.49
2018-03-30T05:43:40.093Z,9.59
2018-03-30T05:44:20.472Z,9.63
2018-03-30T05:45:00.884Z,9.65
2018-03-30T05:45:41.310Z,9.56
2018-03-30T05:46:21.728Z,9.6
2018-03-30T05:47:02.120Z,9.65
2018-03-30T05:47:42.491Z,9.52
2018-03-30T05:48:22.914Z,9.52
2018-03-30T05:49:03.289Z,9.52
2018-03-30T05:49:43.660Z,9.53
2018-03-30T05:50:24.082Z,9.53
2018-03-30T05:51:04.494Z,9.31
2018-03-30T05:51:44.860Z,9.32
2018-03-30T05:52:25.240Z,9.32
2018-03-30T05:53:05.619Z,9.31
2018-03-30T05:53:46.085Z,9.37
2018-03-30T05:54:26.435Z,9.44
2018-03-30T05:55:06.860Z,9.38
2018-03-30T05:55:47.229Z,9.31
2018-03-30T05:56:27.610Z,9.2
2018-03-30T05:57:08.041Z,9.27
2018-03-30T05:57:48.421Z,9.24
2018-03-30T05:58:28.872Z,9.2
2018-03-30T05:59:09.264Z,9.31
2018-03-30T05:59:49.669Z,9.3
2018-03-30T06:00:30.025Z,9.34
2018-03-30T06:01:10.415Z,9.27
2018-03-30T06:01:50.830Z,9.26
2018-03-30T06:02:31.226Z,9.19
2018-03-30T06:03:11.633Z,9.17
2018-03-30T06:03:51.999Z,9.31
2018-03-30T06:04:32.380Z,9.19
2018-03-30T06:05:12.836Z,9.24
2018-03-30T06:05:53.218Z,9.12
2018-03-30T06:06:33.618Z,9.16
2018-03-30T06:07:13.997Z,9.15
2018-03-30T06:07:54.414Z,9.31
2018-03-30T06:08:34.849Z,9.24
2018-03-30T06:09:15.220Z,9.32
2018-03-30T06:09:55.642Z,9.26
2018-03-30T06:10:36.072Z,9.31
2018-03-30T06:11:16.467Z,9.41
2018-03-30T06:11:56.862Z,9.44
2018-03-30T06:12:37.282Z,9.6
2018-03-30T06:13:17.608Z,9.65
2018-03-30T06:13:58.020Z,9.68
2018-03-30T06:14:38.371Z,9.71
2018-03-30T06:16:16.830Z,9.78
2018-03-30T06:16:58.366Z,9.75
2018-03-30T06:17:38.869Z,9.71
2018-03-30T06:18:19.241Z,9.7
2018-03-30T06:18:59.659Z,9.8
2018-03-30T06:19:40.001Z,9.74
2018-03-30T06:20:20.426Z,9.78
2018-03-30T06:21:00.777Z,9.68
2018-03-30T06:21:41.198Z,9.73
2018-03-30T06:22:21.606Z,9.74
2018-03-30T06:23:02.114Z,9.81
2018-03-30T06:23:42.446Z,9.8
2018-03-30T06:24:22.825Z,9.83
2018-03-30T06:25:03.233Z,9.86
2018-03-30T06:25:43.652Z,9.89
2018-03-30T06:26:24.023Z,9.91
2018-03-30T06:28:16.576Z,10.16
2018-03-30T06:28:58.000Z,10.16
2018-03-30T06:29:38.418Z,10.16
2018-03-30T06:30:18.806Z,10.22
2018-03-30T06:30:59.167Z,10.25
2018-03-30T06:31:39.587Z,10.2
2018-03-30T06:32:20.054Z,10.22
2018-03-30T06:33:00.474Z,10.18
2018-03-30T06:33:40.819Z,10.17
2018-03-30T06:34:21.248Z,10.24
2018-03-30T06:35:01.625Z,10.32
2018-03-30T06:35:41.977Z,10.34
2018-03-30T06:36:22.389Z,10.31
2018-03-30T06:37:02.787Z,10.44
2018-03-30T06:37:43.216Z,10.44
2018-03-30T06:38:23.601Z,10.55
2018-03-30T06:39:04.011Z,10.62
2018-03-30T06:39:44.442Z,10.63
2018-03-30T06:40:24.794Z,10.84
2018-03-30T06:41:05.201Z,10.81
2018-03-30T06:41:45.591Z,10.88
2018-03-30T06:42:26.015Z,10.87
2018-03-30T06:43:06.431Z,10.94
2018-03-30T06:43:46.820Z,10.83
2018-03-30T06:44:27.224Z,10.9
2018-03-30T06:45:07.564Z,10.91
2018-03-30T06:45:47.989Z,10.9
2018-03-30T06:46:28.385Z,11.05
2018-03-30T06:47:08.803Z,11.02
2018-03-30T06:47:49.223Z,10.86
2018-03-30T06:48:29.617Z,10.83
2018-03-30T06:49:09.986Z,10.68
2018-03-30T06:49:50.405Z,10.62
2018-03-30T06:50:30.816Z,10.58
2018-03-30T06:51:11.164Z,10.66
2018-03-30T06:51:51.561Z,10.72
2018-03-30T06:52:31.948Z,10.68
2018-03-30T06:53:12.386Z,10.7
2018-03-30T06:53:52.772Z,10.76
2018-03-30T06:54:33.187Z,10.88
2018-03-30T06:55:13.563Z,10.98
2018-03-30T06:55:53.946Z,11.06
2018-03-30T06:56:34.368Z,11.13
2018-03-30T06:57:14.772Z,11.11
2018-03-30T06:57:55.161Z,11.21
2018-03-30T06:58:35.535Z,11.13
2018-03-30T06:59:15.951Z,11.16
2018-03-30T06:59:56.337Z,11.12
2018-03-30T07:00:36.685Z,11.02
2018-03-30T07:01:17.118Z,11.11
2018-03-30T07:01:57.536Z,11.08
2018-03-30T07:02:37.896Z,11.05
2018-03-30T07:03:18.271Z,11.12
2018-03-30T07:03:58.687Z,11.09
2018-03-30T07:04:39.087Z,10.98
2018-03-30T07:05:19.461Z,11.06
2018-03-30T07:05:59.872Z,10.9
2018-03-30T07:06:40.270Z,10.83
2018-03-30T07:07:20.669Z,10.88
2018-03-30T07:08:01.045Z,10.88
2018-03-30T07:08:41.453Z,10.81
2018-03-30T07:09:21.885Z,10.81
2018-03-30T07:10:02.280Z,10.84
2018-03-30T07:10:42.631Z,10.72
2018-03-30T07:11:23.015Z,10.76
2018-03-30T07:12:03.459Z,10.78
2018-03-30T07:12:43.858Z,10.86
2018-03-30T07:13:24.308Z,10.86
2018-03-30T07:14:04.636Z,10.9
2018-03-30T07:14:45.045Z,10.91
2018-03-30T07:15:25.431Z,10.99
2018-03-30T07:16:05.844Z,11.06
2018-03-30T07:16:46.208Z,11.06
2018-03-30T07:17:26.624Z,10.98
2018-03-30T07:18:07.011Z,11.08
2018-03-30T07:18:47.397Z,11.06
2018-03-30T07:19:27.826Z,11.03
2018-03-30T07:20:08.240Z,11.17
2018-03-30T07:20:48.593Z,11.13
2018-03-30T07:21:28.977Z,11.16
2018-03-30T07:22:09.386Z,11.11
2018-03-30T07:22:49.768Z,11.13
2018-03-30T07:23:30.152Z,11.19
2018-03-30T07:24:10.578Z,11.13
2018-03-30T07:24:50.919Z,11.06
2018-03-30T07:25:31.311Z,10.99
2018-03-30T07:26:11.720Z,10.99
2018-03-30T07:26:52.144Z,11.02
2018-03-30T07:27:32.512Z,11.05
2018-03-30T07:28:12.924Z,10.98
2018-03-30T07:28:53.359Z,10.99
2018-03-30T07:29:33.810Z,10.93
2018-03-30T07:30:14.166Z,10.88
2018-03-30T07:30:54.556Z,10.91
2018-03-30T07:31:34.941Z,10.91
2018-03-30T07:32:15.405Z,10.91
2018-03-30T07:32:55.786Z,11.06
2018-03-30T07:33:36.149Z,11.03
2018-03-30T07:34:16.574Z,11.01
2018-03-30T07:34:56.939Z,11.08
2018-03-30T07:35:37.416Z,11.02
2018-03-30T07:36:17.763Z,11.03
2018-03-30T07:36:58.198Z,11.11
2018-03-30T07:37:38.603Z,11.12
2018-03-30T07:38:18.954Z,11.26
2018-03-30T07:38:59.394Z,11.35
2018-03-30T07:39:39.750Z,11.38
2018-03-30T07:40:20.202Z,11.48
2018-03-30T07:41:00.557Z,11.53
2018-03-30T07:41:40.932Z,11.51
2018-03-30T07:42:21.381Z,11.53
2018-03-30T07:43:01.788Z,11.54
2018-03-30T07:43:42.191Z,11.56
2018-03-30T07:44:22.587Z,11.66
2018-03-30T07:45:03.018Z,11.63
2018-03-30T07:45:43.422Z,11.88
2018-03-30T07:46:23.807Z,11.93
2018-03-30T07:47:04.176Z,11.97
2018-03-30T07:47:44.589Z,12.03
2018-03-30T07:48:24.970Z,12.23
2018-03-30T07:49:05.336Z,12.38
2018-03-30T07:49:45.712Z,12.48
2018-03-30T07:51:23.955Z,12.61
2018-03-30T07:52:06.853Z,12.59
2018-03-30T07:52:47.061Z,12.56
2018-03-30T07:53:27.496Z,12.62
2018-03-30T07:54:07.878Z,12.76
2018-03-30T07:54:48.270Z,12.69
2018-03-30T07:55:28.695Z,12.69
2018-03-30T07:56:09.063Z,12.8
2018-03-30T07:56:49.479Z,12.76
2018-03-30T07:57:30.036Z,12.71
2018-03-30T07:58:10.419Z,12.59
2018-03-30T07:58:50.820Z,12.58
2018-03-30T07:59:31.440Z,12.73
2018-03-30T08:00:11.948Z,12.89
2018-03-30T08:00:52.355Z,13.13
2018-03-30T08:01:32.814Z,13.35
2018-03-30T08:02:13.210Z,13.32
2018-03-30T08:02:53.614Z,13.47
2018-03-30T08:03:34.109Z,13.62
2018-03-30T08:04:14.490Z,13.69
2018-03-30T08:04:54.944Z,13.71
2018-03-30T08:05:35.346Z,13.91
2018-03-30T08:06:15.747Z,13.98
2018-03-30T08:06:56.107Z,13.94
2018-03-30T08:07:36.492Z,14.17
2018-03-30T08:08:16.902Z,14.17
2018-03-30T08:08:57.321Z,14.38
2018-03-30T08:09:37.733Z,14.49
2018-03-30T08:10:18.130Z,14.78
2018-03-30T08:10:58.531Z,14.79
2018-03-30T08:11:38.947Z,14.78
2018-03-30T08:12:19.388Z,14.85
2018-03-30T08:12:59.842Z,14.86
2018-03-30T08:13:40.231Z,14.97
2018-03-30T08:14:20.903Z,15.16
2018-03-30T08:15:01.261Z,15.22
2018-03-30T08:15:41.668Z,14.97
2018-03-30T08:16:23.209Z,14.75
2018-03-30T08:17:03.559Z,14.83
2018-03-30T08:17:43.998Z,14.72
2018-03-30T08:18:24.420Z,14.44
2018-03-30T08:20:22.091Z,14.16
2018-03-30T08:21:05.345Z,14.04
2018-03-30T08:21:45.746Z,13.96
2018-03-30T08:22:26.217Z,13.87
2018-03-30T08:23:07.427Z,13.88
2018-03-30T08:23:47.885Z,13.91
2018-03-30T08:24:28.262Z,13.9
2018-03-30T08:25:09.231Z,13.81
2018-03-30T08:25:49.654Z,13.88
2018-03-30T08:26:29.990Z,13.96
2018-03-30T08:27:10.393Z,14.13
2018-03-30T08:27:51.455Z,14.29
2018-03-30T08:28:31.776Z,14.6
2018-03-30T08:29:12.249Z,14.61
2018-03-30T08:29:52.674Z,14.72
2018-03-30T08:30:33.131Z,14.93
2018-03-30T08:31:13.567Z,15.01
2018-03-30T08:31:53.931Z,15.03
2018-03-30T08:32:34.307Z,15.16
2018-03-30T08:33:15.191Z,15.18
2018-03-30T08:33:55.361Z,15.18
2018-03-30T08:34:36.773Z,15.2
2018-03-30T08:35:16.623Z,15.13
2018-03-30T08:35:56.874Z,15.13
2018-03-30T08:36:38.265Z,15.01
2018-03-30T08:37:18.934Z,15.05
2018-03-30T08:37:59.324Z,14.9
2018-03-30T08:38:39.813Z,14.79
2018-03-30T08:39:20.192Z,14.74
2018-03-30T08:40:01.898Z,14.63
2018-03-30T08:40:42.466Z,14.59
2018-03-30T08:41:22.855Z,14.61
2018-03-30T08:42:03.710Z,14.48
2018-03-30T08:42:43.748Z,14.54
2018-03-30T08:43:24.267Z,14.45
2018-03-30T08:44:04.745Z,14.35
2018-03-30T08:44:45.141Z,14.17
2018-03-30T08:45:25.573Z,14.17
2018-03-30T08:46:05.938Z,14.06
2018-03-30T08:46:46.853Z,14.05
2018-03-30T08:47:27.157Z,14.05
2018-03-30T08:48:07.606Z,13.94
2018-03-30T08:48:48.055Z,13.88
2018-03-30T08:49:28.694Z,13.93
2018-03-30T08:50:09.117Z,13.9
2018-03-30T08:50:49.479Z,13.71
2018-03-30T08:51:30.187Z,13.65
2018-03-30T08:52:10.703Z,13.61
2018-03-30T08:52:51.009Z,13.59
2018-03-30T08:53:31.894Z,13.76
2018-03-30T08:54:12.345Z,13.99
2018-03-30T08:54:53.061Z,14.19
2018-03-30T08:55:33.489Z,14.12
2018-03-30T08:56:14.513Z,14.13
2018-03-30T08:56:57.672Z,14.01
2018-03-30T08:57:38.060Z,13.99
2018-03-30T08:58:18.452Z,14.06
2018-03-30T08:58:58.872Z,13.99
2018-03-30T08:59:39.789Z,13.86
2018-03-30T09:00:20.238Z,13.87
2018-03-30T09:01:00.683Z,13.75
2018-03-30T09:01:41.161Z,13.94
2018-03-30T09:02:21.706Z,13.93
2018-03-30T09:03:04.808Z,14.16
2018-03-30T09:03:45.263Z,14.27
2018-03-30T09:04:26.629Z,14.38
2018-03-30T09:05:07.288Z,14.6
2018-03-30T09:05:47.646Z,14.6
2018-03-30T09:06:28.137Z,14.48
2018-03-30T09:07:08.785Z,14.44
2018-03-30T09:07:49.543Z,14.41
2018-03-30T09:08:29.979Z,14.45
2018-03-30T09:09:10.389Z,14.44
2018-03-30T09:09:50.785Z,14.36
2018-03-30T09:10:31.292Z,14.35
2018-03-30T09:11:12.235Z,14.35
2018-03-30T09:11:52.872Z,14.46
2018-03-30T09:12:33.359Z,14.61
2018-03-30T09:13:13.740Z,14.56
2018-03-30T09:13:54.249Z,14.45
2018-03-30T09:14:34.682Z,14.53
2018-03-30T09:15:15.598Z,14.57
2018-03-30T09:15:55.998Z,14.78
2018-03-30T09:16:36.887Z,14.72
2018-03-30T09:17:17.351Z,14.74
2018-03-30T09:17:58.773Z,14.87
2018-03-30T09:18:39.109Z,15.16
2018-03-30T09:19:19.636Z,15.31
2018-03-30T09:20:00.084Z,15.3
2018-03-30T09:20:40.831Z,15.25
2018-03-30T09:21:21.149Z,15
2018-03-30T09:22:01.625Z,14.87
2018-03-30T09:25:12.928Z,14.53
2018-03-30T09:25:57.677Z,14.46
2018-03-30T09:26:38.052Z,14.61
2018-03-30T09:27:18.747Z,14.67
2018-03-30T09:27:59.227Z,14.71
2018-03-30T09:28:39.541Z,14.74
2018-03-30T09:29:21.496Z,14.71
2018-03-30T09:30:01.899Z,14.85
2018-03-30T09:30:42.717Z,14.93
2018-03-30T09:31:23.546Z,14.98
2018-03-30T09:32:04.189Z,15
2018-03-30T09:32:44.479Z,14.97
2018-03-30T09:33:25.381Z,15.09
2018-03-30T09:34:05.847Z,15.18
2018-03-30T09:34:46.333Z,15.16
2018-03-30T09:35:27.151Z,15.12
2018-03-30T09:36:08.633Z,15.03
2018-03-30T09:36:49.034Z,15
2018-03-30T09:37:29.789Z,14.98
2018-03-30T09:38:10.240Z,15
2018-03-30T09:38:50.868Z,15.04
2018-03-30T09:39:31.227Z,14.97
2018-03-30T09:40:11.637Z,14.93
2018-03-30T09:40:52.016Z,14.97
2018-03-30T09:41:32.736Z,14.97
2018-03-30T09:42:13.228Z,15
2018-03-30T09:42:53.611Z,14.8
2018-03-30T09:43:34.069Z,14.9
2018-03-30T09:44:14.521Z,14.83
2018-03-30T09:44:54.902Z,14.8
2018-03-30T09:45:35.254Z,14.74
2018-03-30T09:46:15.656Z,14.79
2018-03-30T09:46:56.206Z,14.9
2018-03-30T09:47:36.559Z,14.94
2018-03-30T09:48:16.956Z,15.04
2018-03-30T09:48:57.507Z,14.98